KRQE

Window Rock Airport

Window Rock, Arizona, USA
METAR KRQE 181453Z AUTO 00000KT 10SM CLR M11/M12 A3032 RMK AO2 SLP285 T11061122 53006 TSNO
Observed Flight Rules
Jan-18 @ 14:53 UTC (41 minutes ago) Visual Flight Rules
Wind Visibility Clouds
Calm 10 miles
  • Clear skies
Temperatures Readings
Current -11°C / 12°F
Dewpoint -12°C / 10°F
Humidity 92%
Altimeter 30.32" Hg
Pressure 1028.5 hPa
Elevation 2055
METAR KRQE 181453Z AUTO 00000KT 10SM CLR M11/M12 A3032 RMK AO2 SLP285 T11061122 53006 TSNO
Observed Flight Rules
Jan-18 @ 14:53 UTC
(41 minutes ago)
VFR
Wind Visibility
Calm 10 miles
Clouds
  • Clear skies
Temperature Dewpoint
-11°C / 12°F -12°C / 10°F
Humidity Altimeter Pressure
92% 30.32" Hg 1028.5 hPa